createdAt,value
2022-11-15T00:00:52.016Z,88.53
2022-11-15T00:03:38.398Z,88.57
2022-11-15T00:06:24.659Z,88.65
2022-11-15T00:09:11.003Z,88.48
2022-11-15T00:11:57.542Z,88.36
2022-11-15T00:14:44.047Z,88.21
2022-11-15T00:17:30.721Z,88.41
2022-11-15T00:20:18.824Z,88.51
2022-11-15T00:23:06.462Z,88.58
2022-11-15T00:25:59.921Z,88.57
2022-11-15T00:28:46.402Z,88.64
2022-11-15T00:31:32.821Z,88.72
2022-11-15T00:34:19.137Z,88.77
2022-11-15T00:37:06.784Z,88.87
2022-11-15T00:39:53.448Z,88.69
2022-11-15T00:42:40.696Z,88.79
2022-11-15T00:45:27.705Z,88.79
2022-11-15T00:48:13.853Z,88.82
2022-11-15T00:51:00.670Z,88.88
2022-11-15T00:53:46.858Z,88.71
2022-11-15T00:56:33.212Z,88.69
2022-11-15T00:59:19.560Z,88.65
2022-11-15T01:02:05.819Z,88.71
2022-11-15T01:04:52.222Z,88.84
2022-11-15T01:07:38.761Z,88.68
2022-11-15T01:10:26.820Z,88.74
2022-11-15T01:13:13.291Z,88.64
2022-11-15T01:16:00.724Z,88.68
2022-11-15T01:18:47.216Z,88.61
2022-11-15T01:21:33.632Z,88.63
2022-11-15T01:24:20.037Z,88.71
2022-11-15T01:27:06.656Z,88.80
2022-11-15T01:29:52.837Z,88.92
2022-11-15T01:32:39.118Z,88.96
2022-11-15T01:35:25.585Z,88.95
2022-11-15T01:38:11.912Z,89.03
2022-11-15T01:40:58.284Z,88.94
2022-11-15T01:43:44.918Z,88.74
2022-11-15T01:46:37.051Z,88.77
2022-11-15T01:49:25.915Z,88.87
2022-11-15T01:52:19.018Z,88.89
2022-11-15T01:55:20.925Z,88.96
2022-11-15T01:58:08.922Z,88.86
2022-11-15T02:00:55.654Z,88.71
2022-11-15T02:04:00.419Z,88.64
2022-11-15T02:06:49.811Z,88.64
2022-11-15T02:09:38.801Z,88.49
2022-11-15T02:12:25.369Z,88.59
2022-11-15T02:15:12.998Z,88.54
2022-11-15T02:18:31.421Z,88.44
2022-11-15T02:21:34.476Z,88.50
2022-11-15T02:24:36.735Z,88.44
2022-11-15T02:27:54.074Z,88.42
2022-11-15T02:30:48.711Z,88.49
2022-11-15T02:33:55.913Z,88.68
2022-11-15T02:36:55.488Z,88.55
2022-11-15T02:40:00.760Z,88.65
2022-11-15T02:43:24.267Z,88.78
2022-11-15T02:46:45.077Z,88.89
2022-11-15T02:49:35.903Z,89.12
2022-11-15T02:52:27.116Z,89.22
2022-11-15T02:55:32.450Z,89.38
2022-11-15T02:59:11.543Z,89.61
2022-11-15T03:02:39.850Z,89.72
2022-11-15T03:05:58.009Z,89.73
2022-11-15T03:09:10.319Z,89.75
2022-11-15T03:12:30.318Z,89.81
2022-11-15T03:15:29.075Z,89.65
2022-11-15T03:18:42.742Z,89.71
2022-11-15T03:21:33.312Z,89.76
2022-11-15T03:24:25.968Z,89.69
2022-11-15T03:27:20.890Z,89.68
2022-11-15T03:30:09.888Z,89.61
2022-11-15T03:33:00.920Z,89.51
2022-11-15T03:35:49.937Z,89.50
2022-11-15T03:38:37.022Z,89.46
2022-11-15T03:41:46.796Z,89.35
2022-11-15T03:45:14.058Z,89.24
2022-11-15T03:48:11.786Z,89.14
2022-11-15T03:50:58.562Z,89.09
2022-11-15T03:53:45.328Z,89.06
2022-11-15T03:56:32.309Z,89.06
2022-11-15T03:59:18.928Z,89.01
2022-11-15T04:02:05.110Z,89.01
2022-11-15T04:04:51.357Z,88.98
2022-11-15T04:07:37.713Z,88.93
2022-11-15T04:10:24.297Z,88.91
2022-11-15T04:13:10.726Z,89.01
2022-11-15T04:15:57.090Z,88.97
2022-11-15T04:18:43.192Z,89.07
2022-11-15T04:21:48.606Z,89.16
2022-11-15T04:24:35.369Z,89.25
2022-11-15T04:27:21.453Z,89.22
2022-11-15T04:30:08.690Z,89.23
2022-11-15T04:32:55.054Z,89.27
2022-11-15T04:35:42.499Z,89.25
2022-11-15T04:38:28.999Z,89.41
2022-11-15T04:41:15.247Z,89.44
2022-11-15T04:44:01.525Z,89.37
2022-11-15T04:46:47.823Z,89.48
2022-11-15T04:49:34.322Z,89.36
2022-11-15T04:52:20.541Z,89.27
2022-11-15T04:55:08.419Z,89.30
2022-11-15T04:58:03.693Z,89.32
2022-11-15T05:00:50.185Z,89.29
2022-11-15T05:03:55.512Z,89.27
2022-11-15T05:06:41.678Z,89.30
2022-11-15T05:09:28.109Z,89.27
2022-11-15T05:12:14.362Z,89.35
2022-11-15T05:15:00.646Z,89.37
2022-11-15T05:17:47.103Z,89.41
2022-11-15T05:20:33.726Z,89.44
2022-11-15T05:23:20.187Z,89.50
2022-11-15T05:26:09.435Z,89.49
2022-11-15T05:28:58.642Z,89.54
2022-11-15T05:31:45.378Z,89.54
2022-11-15T05:34:32.329Z,89.52
2022-11-15T05:37:19.342Z,89.56
2022-11-15T05:40:06.832Z,89.55
2022-11-15T05:42:53.412Z,89.47
2022-11-15T05:45:39.868Z,89.41
2022-11-15T05:48:26.892Z,89.40
2022-11-15T05:51:16.371Z,89.45
2022-11-15T05:54:03.558Z,89.55
2022-11-15T05:56:51.332Z,89.60
2022-11-15T05:59:39.143Z,89.60
2022-11-15T06:02:25.605Z,89.60
2022-11-15T06:05:11.833Z,89.63
2022-11-15T06:08:00.088Z,89.66
2022-11-15T06:10:46.427Z,89.66
2022-11-15T06:13:34.010Z,89.62
2022-11-15T06:16:20.498Z,89.59
2022-11-15T06:19:08.517Z,89.62
2022-11-15T06:21:55.101Z,89.73
2022-11-15T06:24:41.386Z,89.60
2022-11-15T06:27:28.210Z,89.60
2022-11-15T06:30:14.874Z,89.60
2022-11-15T06:33:06.447Z,89.65
2022-11-15T06:35:53.177Z,89.66
2022-11-15T06:38:39.510Z,89.67
2022-11-15T06:41:25.769Z,89.71
2022-11-15T06:44:12.010Z,89.74
2022-11-15T06:46:58.364Z,89.85
2022-11-15T06:49:44.608Z,89.97
2022-11-15T06:52:33.590Z,90.05
2022-11-15T06:55:20.377Z,90.19
2022-11-15T06:58:06.797Z,90.27
2022-11-15T07:00:53.186Z,90.35
2022-11-15T07:03:43.481Z,90.53
2022-11-15T07:06:30.146Z,90.52
2022-11-15T07:09:16.527Z,90.55
2022-11-15T07:12:07.537Z,90.62
2022-11-15T07:14:54.290Z,90.67
2022-11-15T07:17:40.637Z,90.70
2022-11-15T07:20:27.121Z,90.77
2022-11-15T07:23:13.572Z,90.93
2022-11-15T07:26:01.147Z,91.00
2022-11-15T07:28:48.334Z,91.11
2022-11-15T07:31:34.581Z,91.11
2022-11-15T07:34:20.990Z,91.16
2022-11-15T07:37:07.303Z,91.23
2022-11-15T07:39:53.955Z,91.16
2022-11-15T07:42:56.451Z,91.28
2022-11-15T07:45:46.686Z,91.36
2022-11-15T07:48:43.245Z,91.37
2022-11-15T07:51:30.882Z,91.37
2022-11-15T07:54:17.522Z,91.36
2022-11-15T07:57:07.643Z,91.36
2022-11-15T07:59:54.767Z,91.40
2022-11-15T08:02:41.766Z,91.45
2022-11-15T08:05:28.585Z,91.42
2022-11-15T08:08:15.260Z,91.43
2022-11-15T08:11:01.752Z,91.45
2022-11-15T08:13:48.455Z,91.49
2022-11-15T08:16:34.861Z,91.52
2022-11-15T08:19:21.184Z,91.64
2022-11-15T08:22:08.910Z,91.71
2022-11-15T08:24:55.664Z,91.63
2022-11-15T08:27:42.130Z,91.71
2022-11-15T08:30:29.006Z,91.67
2022-11-15T08:33:15.430Z,91.73
2022-11-15T08:36:01.980Z,91.82
2022-11-15T08:38:48.530Z,91.80
2022-11-15T08:41:38.583Z,91.71
2022-11-15T08:44:25.129Z,91.72
2022-11-15T08:47:13.600Z,91.82
2022-11-15T08:50:00.454Z,91.87
2022-11-15T08:52:49.100Z,91.84
2022-11-15T08:55:41.535Z,91.84
2022-11-15T08:58:28.238Z,91.86
2022-11-15T09:01:19.650Z,91.99
2022-11-15T09:04:06.057Z,91.91
2022-11-15T09:06:52.824Z,92.06
2022-11-15T09:09:40.122Z,92.01
2022-11-15T09:12:26.883Z,92.00
2022-11-15T09:15:13.394Z,92.10
2022-11-15T09:18:00.570Z,92.11
2022-11-15T09:20:46.986Z,92.14
2022-11-15T09:23:33.303Z,92.12
2022-11-15T09:26:20.000Z,92.23
2022-11-15T09:29:06.378Z,92.34
2022-11-15T09:31:55.635Z,92.24
2022-11-15T09:34:42.087Z,92.36
2022-11-15T09:37:28.455Z,92.41
2022-11-15T09:40:18.501Z,92.58
2022-11-15T09:43:18.768Z,92.49
2022-11-15T09:46:13.967Z,92.60
2022-11-15T09:49:05.593Z,92.54
2022-11-15T09:51:55.718Z,92.49
2022-11-15T09:57:40.918Z,92.52
2022-11-15T10:03:40.331Z,92.49
2022-11-15T10:06:21.069Z,92.50
2022-11-15T10:09:20.000Z,92.54
2022-11-15T10:11:50.920Z,92.50
2022-11-15T10:14:24.807Z,92.49
2022-11-15T10:17:01.429Z,92.42
2022-11-15T10:19:47.133Z,92.43
2022-11-15T10:23:03.219Z,92.44
2022-11-15T10:25:34.361Z,92.39
2022-11-15T10:28:38.239Z,92.47
2022-11-15T10:31:25.907Z,92.46
2022-11-15T10:34:14.443Z,92.42
2022-11-15T10:37:04.358Z,92.43
2022-11-15T10:39:34.506Z,92.43
2022-11-15T10:42:30.085Z,92.48
2022-11-15T10:44:58.178Z,92.46
2022-11-15T10:47:38.874Z,92.55
2022-11-15T10:50:31.857Z,92.49
2022-11-15T10:53:03.574Z,92.49
2022-11-15T10:55:35.050Z,92.50
2022-11-15T10:58:23.533Z,92.51
2022-11-15T11:00:54.729Z,92.56
2022-11-15T11:03:32.004Z,92.56
2022-11-15T11:06:18.847Z,92.59
2022-11-15T11:08:58.833Z,92.61
2022-11-15T11:11:47.678Z,92.60
2022-11-15T11:14:28.061Z,92.59
2022-11-15T11:17:43.270Z,92.61
2022-11-15T11:20:45.451Z,92.68
2022-11-15T11:23:43.125Z,92.69
2022-11-15T11:26:43.240Z,92.64
2022-11-15T11:29:32.051Z,92.71
2022-11-15T11:32:53.916Z,92.83
2022-11-15T11:35:36.780Z,92.86
2022-11-15T11:38:37.761Z,92.83
2022-11-15T11:41:41.985Z,92.85
2022-11-15T11:44:25.805Z,92.88
2022-11-15T11:47:02.751Z,92.87
2022-11-15T11:49:53.217Z,92.93
2022-11-15T11:52:29.158Z,92.91
2022-11-15T11:55:13.462Z,92.92
2022-11-15T11:57:51.648Z,92.96
2022-11-15T12:00:27.031Z,92.99
2022-11-15T12:03:34.198Z,92.98
2022-11-15T12:06:27.166Z,93.00
2022-11-15T12:09:16.569Z,93.02
2022-11-15T12:12:09.476Z,93.02
2022-11-15T12:15:10.713Z,93.08
2022-11-15T12:17:41.890Z,93.11
2022-11-15T12:20:23.560Z,93.06
2022-11-15T12:23:05.209Z,93.11
2022-11-15T12:25:43.696Z,93.12
2022-11-15T12:28:36.227Z,93.17
2022-11-15T12:31:25.342Z,93.17
2022-11-15T12:34:02.890Z,93.25
2022-11-15T12:36:40.530Z,93.27
2022-11-15T12:39:15.937Z,93.40
2022-11-15T12:42:04.957Z,93.30
2022-11-15T12:44:32.637Z,93.27
2022-11-15T12:47:27.057Z,93.29
2022-11-15T12:49:55.094Z,93.20
2022-11-15T12:52:23.265Z,93.24
2022-11-15T12:54:55.505Z,93.16
2022-11-15T12:57:31.712Z,93.22
2022-11-15T13:00:07.674Z,93.15
2022-11-15T13:02:42.743Z,93.17
2022-11-15T13:05:36.853Z,93.10
2022-11-15T13:08:04.798Z,93.03
2022-11-15T13:10:34.927Z,93.02
2022-11-15T13:13:10.328Z,93.07
2022-11-15T13:15:57.334Z,92.87
2022-11-15T13:18:32.402Z,92.65
2022-11-15T13:21:03.142Z,92.33
2022-11-15T13:23:31.998Z,92.15
2022-11-15T13:26:13.157Z,91.97
2022-11-15T13:28:46.294Z,91.85
2022-11-15T13:31:25.345Z,91.69
2022-11-15T13:33:58.077Z,91.53
2022-11-15T13:36:30.946Z,91.21
2022-11-15T13:39:15.710Z,90.75
2022-11-15T13:41:51.449Z,90.50
2022-11-15T13:44:26.078Z,89.87
2022-11-15T13:47:16.789Z,89.96
2022-11-15T13:49:44.697Z,89.80
2022-11-15T13:52:17.415Z,89.71
2022-11-15T13:54:58.192Z,89.49
2022-11-15T13:57:40.657Z,89.53
2022-11-15T14:00:36.476Z,89.70
2022-11-15T14:03:09.438Z,89.42
2022-11-15T14:05:37.357Z,89.23
2022-11-15T14:08:24.726Z,89.07
2022-11-15T14:11:18.228Z,89.00
2022-11-15T14:14:16.496Z,88.58
2022-11-15T14:16:48.091Z,88.51
2022-11-15T14:19:21.950Z,88.31
2022-11-15T14:22:26.911Z,88.20
2022-11-15T14:25:22.627Z,88.39
2022-11-15T14:28:24.453Z,88.56
2022-11-15T14:30:56.646Z,88.99
2022-11-15T14:33:30.526Z,89.00
2022-11-15T14:36:13.747Z,88.93
2022-11-15T14:38:43.888Z,88.87
2022-11-15T14:41:27.444Z,88.51
2022-11-15T14:43:55.284Z,88.49
2022-11-15T14:46:23.024Z,88.37
2022-11-15T14:48:51.166Z,88.44
2022-11-15T14:51:20.137Z,88.54
2022-11-15T14:53:48.472Z,88.36
2022-11-15T14:56:17.311Z,88.28
2022-11-15T14:58:45.115Z,88.52
2022-11-15T15:01:24.609Z,88.91
2022-11-15T15:03:56.726Z,89.15
2022-11-15T15:06:24.898Z,89.12
2022-11-15T15:08:52.870Z,89.01
2022-11-15T15:11:28.381Z,88.73
2022-11-15T15:13:58.308Z,88.73
2022-11-15T15:16:26.153Z,89.00
2022-11-15T15:18:54.196Z,89.29
2022-11-15T15:21:25.792Z,89.27
2022-11-15T15:23:55.130Z,89.14
2022-11-15T15:26:24.630Z,89.31
2022-11-15T15:28:52.786Z,89.29
2022-11-15T15:31:21.457Z,89.43
2022-11-15T15:33:49.374Z,89.35
2022-11-15T15:36:19.863Z,89.42
2022-11-15T15:38:47.848Z,89.46
2022-11-15T15:41:17.657Z,89.84
2022-11-15T15:43:45.908Z,90.02
2022-11-15T15:46:18.462Z,90.08
2022-11-15T15:48:47.376Z,90.21
2022-11-15T15:51:20.190Z,90.50
2022-11-15T15:53:49.301Z,90.73
2022-11-15T15:56:17.160Z,90.67
2022-11-15T15:58:44.941Z,90.77
2022-11-15T16:01:12.755Z,90.73
2022-11-15T16:03:40.607Z,90.98
2022-11-15T16:06:40.169Z,91.54
2022-11-15T16:09:16.084Z,91.61
2022-11-15T16:11:47.396Z,91.52
2022-11-15T16:14:15.213Z,91.58
2022-11-15T16:16:42.999Z,91.75
2022-11-15T16:19:12.774Z,91.85
2022-11-15T16:21:40.566Z,91.75
2022-11-15T16:24:08.309Z,91.93
2022-11-15T16:26:37.880Z,91.94
2022-11-15T16:29:07.894Z,91.90
2022-11-15T16:31:35.764Z,91.92
2022-11-15T16:34:03.765Z,92.17
2022-11-15T16:36:35.419Z,91.94
2022-11-15T16:39:05.102Z,91.94
2022-11-15T16:41:33.493Z,91.66
2022-11-15T16:44:01.377Z,91.46
2022-11-15T16:46:30.063Z,91.49
2022-11-15T16:48:58.471Z,91.50
2022-11-15T16:51:26.451Z,91.59
2022-11-15T16:53:54.180Z,91.62
2022-11-15T16:56:30.659Z,91.59
2022-11-15T16:59:00.791Z,91.67
2022-11-15T17:01:33.409Z,91.48
2022-11-15T17:04:16.367Z,91.53
2022-11-15T17:06:46.689Z,91.49
2022-11-15T17:09:25.712Z,91.63
2022-11-15T17:11:54.122Z,91.65
2022-11-15T17:14:22.225Z,91.87
2022-11-15T17:16:50.465Z,91.96
2022-11-15T17:19:21.177Z,91.83
2022-11-15T17:21:49.705Z,91.86
2022-11-15T17:24:18.148Z,91.87
2022-11-15T17:26:45.902Z,91.80
2022-11-15T17:29:13.686Z,91.77
2022-11-15T17:31:41.439Z,91.80
2022-11-15T17:34:09.222Z,91.84
2022-11-15T17:36:36.978Z,91.83
2022-11-15T17:39:05.399Z,91.77
2022-11-15T17:41:33.414Z,91.68
2022-11-15T17:44:03.474Z,91.77
2022-11-15T17:46:33.535Z,91.60
2022-11-15T17:49:01.566Z,91.70
2022-11-15T17:51:29.443Z,91.70
2022-11-15T17:53:57.311Z,91.77
2022-11-15T17:56:28.154Z,91.94
2022-11-15T17:58:59.348Z,91.81
2022-11-15T18:01:36.739Z,91.81
2022-11-15T18:04:10.028Z,91.76
2022-11-15T18:06:37.977Z,91.82
2022-11-15T18:09:07.272Z,91.87
2022-11-15T18:11:39.422Z,91.92
2022-11-15T18:14:13.582Z,91.97
2022-11-15T18:16:41.811Z,91.94
2022-11-15T18:19:13.856Z,92.05
2022-11-15T18:21:57.731Z,92.27
2022-11-15T18:24:35.382Z,92.20
2022-11-15T18:27:05.904Z,92.20
2022-11-15T18:29:35.498Z,92.19
2022-11-15T18:32:11.106Z,92.19
2022-11-15T18:34:39.336Z,92.26
2022-11-15T18:37:07.785Z,92.20
2022-11-15T18:39:35.975Z,92.29
2022-11-15T18:42:04.225Z,92.21
2022-11-15T18:44:32.317Z,92.33
2022-11-15T18:47:00.191Z,92.37
2022-11-15T18:49:28.325Z,92.47
2022-11-15T18:51:56.990Z,92.45
2022-11-15T18:54:30.619Z,92.51
2022-11-15T18:56:59.502Z,92.43
2022-11-15T18:59:27.911Z,92.44
2022-11-15T19:01:56.909Z,92.50
2022-11-15T19:04:24.890Z,92.60
2022-11-15T19:06:53.585Z,92.62
2022-11-15T19:09:21.610Z,92.57
2022-11-15T19:11:51.638Z,92.68
2022-11-15T19:14:24.067Z,92.69
2022-11-15T19:16:53.048Z,92.57
2022-11-15T19:19:28.356Z,92.51
2022-11-15T19:21:59.235Z,92.52
2022-11-15T19:24:27.500Z,92.63
2022-11-15T19:26:55.467Z,92.61
2022-11-15T19:29:23.265Z,92.61
2022-11-15T19:31:51.053Z,92.46
2022-11-15T19:34:18.816Z,92.49
2022-11-15T19:36:46.698Z,92.53
2022-11-15T19:39:18.081Z,92.49
2022-11-15T19:41:47.054Z,92.33
2022-11-15T19:44:15.302Z,92.33
2022-11-15T19:46:44.355Z,92.40
2022-11-15T19:49:12.551Z,92.39
2022-11-15T19:51:42.572Z,92.41
2022-11-15T19:54:11.087Z,92.33
2022-11-15T19:56:42.482Z,92.23
2022-11-15T19:59:11.877Z,92.14
2022-11-15T20:01:40.126Z,92.09
2022-11-15T20:04:10.062Z,92.10
2022-11-15T20:06:42.068Z,92.11
2022-11-15T20:09:15.540Z,92.08
2022-11-15T20:11:43.846Z,92.01
2022-11-15T20:14:13.089Z,92.01
2022-11-15T20:16:41.463Z,91.96
2022-11-15T20:19:09.632Z,91.96
2022-11-15T20:21:37.435Z,91.91
2022-11-15T20:24:06.049Z,91.84
2022-11-15T20:26:33.857Z,91.84
2022-11-15T20:29:03.039Z,91.75
2022-11-15T20:31:31.920Z,91.70
2022-11-15T20:34:00.177Z,91.67
2022-11-15T20:36:28.644Z,91.62
2022-11-15T20:39:00.050Z,91.54
2022-11-15T20:41:28.511Z,91.47
2022-11-15T20:43:56.560Z,91.54
2022-11-15T20:46:24.472Z,91.51
2022-11-15T20:48:52.310Z,91.48
2022-11-15T20:51:20.584Z,91.48
2022-11-15T20:53:48.819Z,91.53
2022-11-15T20:56:20.206Z,91.61
2022-11-15T20:58:50.607Z,91.69
2022-11-15T21:01:27.186Z,91.66
2022-11-15T21:03:56.585Z,91.67
2022-11-15T21:06:26.448Z,91.76
2022-11-15T21:09:14.022Z,91.76
2022-11-15T21:12:00.550Z,91.79
2022-11-15T21:14:28.328Z,91.79
2022-11-15T21:16:56.089Z,91.81
2022-11-15T21:19:29.009Z,91.73
2022-11-15T21:22:01.470Z,91.69
2022-11-15T21:24:29.367Z,91.85
2022-11-15T21:26:57.920Z,92.04
2022-11-15T21:29:25.913Z,91.87
2022-11-15T21:31:53.769Z,91.86
2022-11-15T21:34:21.694Z,91.89
2022-11-15T21:36:49.489Z,91.87
2022-11-15T21:39:17.338Z,91.85
2022-11-15T21:41:45.705Z,91.89
2022-11-15T21:44:13.448Z,91.99
2022-11-15T21:46:41.151Z,92.16
2022-11-15T21:49:09.419Z,92.17
2022-11-15T21:51:37.544Z,92.26
2022-11-15T21:54:05.404Z,92.30
2022-11-15T21:56:33.954Z,92.40
2022-11-15T21:59:01.811Z,92.48
2022-11-15T22:01:48.260Z,92.34
2022-11-15T22:04:16.330Z,92.27
2022-11-15T22:06:44.419Z,92.49
2022-11-15T22:09:12.230Z,92.16
2022-11-15T22:11:40.221Z,92.12
2022-11-15T22:14:08.482Z,92.06
2022-11-15T22:16:37.674Z,92.56
2022-11-15T22:19:05.645Z,92.50
2022-11-15T22:21:33.578Z,92.61
2022-11-15T22:24:01.693Z,92.60
2022-11-15T22:26:29.500Z,92.73
2022-11-15T22:28:57.312Z,92.55
2022-11-15T22:31:25.125Z,92.47
2022-11-15T22:33:52.930Z,92.59
2022-11-15T22:36:20.862Z,92.43
2022-11-15T22:38:48.570Z,92.73
2022-11-15T22:41:16.427Z,92.33
2022-11-15T22:43:44.418Z,92.47
2022-11-15T22:46:12.187Z,92.53
2022-11-15T22:48:40.356Z,92.22
2022-11-15T22:51:09.709Z,92.37
2022-11-15T22:53:37.448Z,92.36
2022-11-15T22:56:06.735Z,92.38
2022-11-15T22:58:35.210Z,92.49
2022-11-15T23:01:05.508Z,92.71
2022-11-15T23:03:34.532Z,92.98
2022-11-15T23:06:06.110Z,92.79
2022-11-15T23:08:34.378Z,92.87
2022-11-15T23:11:27.981Z,92.88
2022-11-15T23:13:56.774Z,92.86
2022-11-15T23:16:42.989Z,92.98
2022-11-15T23:19:12.896Z,93.15
2022-11-15T23:22:03.959Z,93.18
2022-11-15T23:24:33.607Z,93.13
2022-11-15T23:27:10.489Z,93.06
2022-11-15T23:29:58.669Z,93.05
2022-11-15T23:32:45.239Z,92.97
2022-11-15T23:35:13.068Z,92.90
2022-11-15T23:37:40.938Z,93.01
2022-11-15T23:40:09.859Z,93.04
2022-11-15T23:42:37.753Z,93.06
2022-11-15T23:45:06.766Z,93.03
2022-11-15T23:47:34.600Z,93.11
2022-11-15T23:50:02.550Z,93.02
2022-11-15T23:52:30.357Z,93.07
2022-11-15T23:54:58.185Z,93.11
2022-11-15T23:57:26.229Z,93.06
2022-11-15T23:59:54.666Z,93.09
